Time;durP1;ratioP1;P1;durP2;ratioP2;P2;SDS_P1;SDS_P2;PMS_P1;PMS_P2;Temp;Humidity;BMP_temperature;BMP_pressure;BME280_temperature;BME280_humidity;BME280_pressure;Samples;Min_cycle;Max_cycle;Signal;HPM_P1;HPM_P2
2020/12/17 00:00:24;;;;;;;60.58;45.10;;;;;;;;;;6235074;28;20059;-69
2020/12/17 00:03:26;;;;;;;52.97;39.25;;;;;;;;;;6216759;28;20164;-69
2020/12/17 00:06:27;;;;;;;95.97;61.45;;;;;;;;;;6224966;28;20037;-71
2020/12/17 00:09:28;;;;;;;121.05;71.53;;;;;;;;;;6241926;28;20095;-70
2020/12/17 00:12:34;;;;;;;57.83;42.45;;;;;;;;;;6241046;28;20681;-69
2020/12/17 00:15:35;;;;;;;49.20;37.95;;;;;;;;;;6237461;28;20103;-70
2020/12/17 00:18:36;;;;;;;47.63;36.67;;;;;;;;;;6241786;28;20045;-68
2020/12/17 00:21:37;;;;;;;44.80;35.45;;;;;;;;;;6233859;28;20076;-69
2020/12/17 00:24:39;;;;;;;47.15;36.65;;;;;;;;;;6238104;28;20060;-69
2020/12/17 00:27:40;;;;;;;45.13;36.28;;;;;;;;;;6226547;28;20041;-68
2020/12/17 00:30:41;;;;;;;46.13;36.25;;;;;;;;;;6239691;28;20144;-68
2020/12/17 00:33:43;;;;;;;49.22;35.78;;;;;;;;;;6233991;28;20473;-69
2020/12/17 00:36:44;;;;;;;45.88;34.70;;;;;;;;;;6239940;28;20529;-68
2020/12/17 00:39:47;;;;;;;44.95;34.28;;;;;;;;;;6235339;28;20060;-69
2020/12/17 00:42:48;;;;;;;47.37;37.03;;;;;;;;;;6236029;28;20057;-68
2020/12/17 00:45:49;;;;;;;49.22;35.53;;;;;;;;;;6230041;28;20136;-69
2020/12/17 00:48:50;;;;;;;47.15;35.38;;;;;;;;;;6230870;28;20136;-69
2020/12/17 00:51:58;;;;;;;47.05;35.22;;;;;;;;;;6230355;28;20154;-68
2020/12/17 00:55:00;;;;;;;43.72;33.90;;;;;;;;;;6229254;28;20536;-70
2020/12/17 00:58:01;;;;;;;45.20;35.67;;;;;;;;;;6224207;28;20046;-69
2020/12/17 01:01:06;;;;;;;44.47;35.20;;;;;;;;;;6228502;28;20219;-69
2020/12/17 01:04:07;;;;;;;48.17;35.17;;;;;;;;;;6227416;28;20042;-70
2020/12/17 01:07:08;;;;;;;44.15;34.08;;;;;;;;;;6235516;28;20053;-69
2020/12/17 01:10:10;;;;;;;46.08;33.80;;;;;;;;;;6236591;28;20400;-70
2020/12/17 01:13:11;;;;;;;47.33;34.85;;;;;;;;;;6231642;28;20065;-69
2020/12/17 01:16:12;;;;;;;46.80;34.35;;;;;;;;;;6238257;28;20132;-69
2020/12/17 01:19:13;;;;;;;46.58;35.10;;;;;;;;;;6237794;28;20038;-70
2020/12/17 01:22:15;;;;;;;49.42;37.53;;;;;;;;;;6236571;28;20336;-71
2020/12/17 01:25:17;;;;;;;47.35;37.05;;;;;;;;;;6232404;28;20144;-69
2020/12/17 01:28:18;;;;;;;49.33;35.40;;;;;;;;;;6240354;28;20681;-69
2020/12/17 01:31:19;;;;;;;51.85;35.42;;;;;;;;;;6232521;28;20049;-69
2020/12/17 01:34:21;;;;;;;48.10;35.05;;;;;;;;;;6229226;28;20064;-69
2020/12/17 01:37:22;;;;;;;48.63;34.72;;;;;;;;;;6233562;28;20052;-69
2020/12/17 01:40:24;;;;;;;47.00;34.60;;;;;;;;;;6226512;28;20057;-69
2020/12/17 01:43:25;;;;;;;46.30;34.40;;;;;;;;;;6230382;28;20051;-71
2020/12/17 01:46:26;;;;;;;43.17;33.30;;;;;;;;;;6226732;28;20042;-70
2020/12/17 01:49:27;;;;;;;47.47;34.08;;;;;;;;;;6238032;28;20065;-70
2020/12/17 01:52:28;;;;;;;44.40;34.00;;;;;;;;;;6227649;28;20057;-69
2020/12/17 01:55:31;;;;;;;47.08;34.80;;;;;;;;;;6230281;28;20049;-69
2020/12/17 01:58:36;;;;;;;47.13;33.50;;;;;;;;;;6236483;28;20641;-70
2020/12/17 02:01:37;;;;;;;48.78;34.88;;;;;;;;;;6229416;28;20033;-69
2020/12/17 02:04:38;;;;;;;47.03;34.55;;;;;;;;;;6214875;28;20644;-69
2020/12/17 02:07:42;;;;;;;45.70;34.60;;;;;;;;;;6207308;28;20045;-69
2020/12/17 02:10:44;;;;;;;47.17;33.47;;;;;;;;;;6213191;28;20133;-70
2020/12/17 02:13:46;;;;;;;47.55;33.92;;;;;;;;;;6213909;28;20127;-69
2020/12/17 02:16:47;;;;;;;44.83;33.90;;;;;;;;;;6208117;28;20045;-69
2020/12/17 02:19:48;;;;;;;49.92;35.97;;;;;;;;;;6210096;28;20117;-68
2020/12/17 02:22:49;;;;;;;45.90;34.63;;;;;;;;;;6212197;28;20578;-69
2020/12/17 02:25:52;;;;;;;47.45;35.08;;;;;;;;;;6208059;28;20141;-68
2020/12/17 02:28:53;;;;;;;45.42;33.03;;;;;;;;;;6211245;28;20046;-69
2020/12/17 02:31:54;;;;;;;46.97;34.00;;;;;;;;;;6202187;28;20136;-68
2020/12/17 02:34:55;;;;;;;47.22;35.25;;;;;;;;;;6211059;28;20050;-68
2020/12/17 02:37:56;;;;;;;44.97;35.15;;;;;;;;;;6213269;28;20133;-69
2020/12/17 02:40:58;;;;;;;47.05;35.45;;;;;;;;;;6213321;28;20128;-68
2020/12/17 02:43:59;;;;;;;47.78;35.35;;;;;;;;;;6207791;28;20531;-68
2020/12/17 02:47:00;;;;;;;48.05;35.50;;;;;;;;;;6212147;28;20046;-69
2020/12/17 02:50:02;;;;;;;46.53;33.92;;;;;;;;;;6238519;28;20124;-69
2020/12/17 02:53:03;;;;;;;45.38;34.58;;;;;;;;;;6236915;28;20041;-68
2020/12/17 02:56:05;;;;;;;48.78;35.60;;;;;;;;;;6237940;28;20456;-68
2020/12/17 02:59:06;;;;;;;48.70;35.72;;;;;;;;;;6236271;28;20136;-69
2020/12/17 03:02:07;;;;;;;46.47;35.95;;;;;;;;;;6232986;28;20412;-68
2020/12/17 03:05:08;;;;;;;44.63;35.75;;;;;;;;;;6238335;28;20428;-69
2020/12/17 03:08:10;;;;;;;47.15;35.05;;;;;;;;;;6237199;28;20053;-68
2020/12/17 03:11:12;;;;;;;50.05;35.10;;;;;;;;;;6233920;28;20504;-69
2020/12/17 03:14:13;;;;;;;46.30;34.45;;;;;;;;;;6240088;28;20416;-68
2020/12/17 03:17:14;;;;;;;45.53;35.00;;;;;;;;;;6234377;28;20038;-69
2020/12/17 03:20:15;;;;;;;44.25;33.55;;;;;;;;;;6236095;28;20087;-69
2020/12/17 03:23:16;;;;;;;43.00;32.85;;;;;;;;;;6232755;28;20049;-68
2020/12/17 03:26:18;;;;;;;45.95;35.78;;;;;;;;;;6232748;28;20053;-69
2020/12/17 03:29:19;;;;;;;48.78;34.92;;;;;;;;;;6237670;28;20084;-68
2020/12/17 03:32:20;;;;;;;44.15;33.50;;;;;;;;;;6239366;28;20041;-69
2020/12/17 03:35:21;;;;;;;44.58;33.15;;;;;;;;;;6232378;28;20091;-68
2020/12/17 03:38:22;;;;;;;43.13;32.60;;;;;;;;;;6237762;28;20746;-68
2020/12/17 03:41:24;;;;;;;45.35;33.22;;;;;;;;;;6234698;28;20176;-68
2020/12/17 03:44:25;;;;;;;41.28;31.45;;;;;;;;;;6231942;28;20051;-70
2020/12/17 03:47:26;;;;;;;44.67;30.70;;;;;;;;;;6235377;28;20129;-69
2020/12/17 03:50:27;;;;;;;42.67;31.33;;;;;;;;;;6231265;28;20121;-69
2020/12/17 03:53:28;;;;;;;43.30;32.50;;;;;;;;;;6235790;28;20052;-69
2020/12/17 03:56:30;;;;;;;37.75;29.25;;;;;;;;;;6230376;28;20073;-68
2020/12/17 03:59:31;;;;;;;39.08;28.60;;;;;;;;;;6231640;28;20133;-69
2020/12/17 04:02:32;;;;;;;37.72;30.25;;;;;;;;;;6235065;28;20056;-70
2020/12/17 04:05:33;;;;;;;35.90;28.92;;;;;;;;;;6237586;28;20128;-69
2020/12/17 04:08:34;;;;;;;42.67;30.67;;;;;;;;;;6234394;28;20045;-68
2020/12/17 04:11:36;;;;;;;37.95;30.05;;;;;;;;;;6231105;28;20120;-68
2020/12/17 04:14:38;;;;;;;37.47;28.23;;;;;;;;;;6232559;28;20042;-69
2020/12/17 04:17:39;;;;;;;40.38;29.42;;;;;;;;;;6232908;28;20072;-70
2020/12/17 04:20:40;;;;;;;37.38;29.60;;;;;;;;;;6236780;28;20037;-68
2020/12/17 04:23:42;;;;;;;40.17;29.70;;;;;;;;;;6235904;28;20068;-68
2020/12/17 04:26:48;;;;;;;36.55;28.58;;;;;;;;;;6236211;28;20055;-68
2020/12/17 04:29:49;;;;;;;34.95;29.20;;;;;;;;;;6234609;28;20140;-68
2020/12/17 04:32:50;;;;;;;37.38;29.77;;;;;;;;;;6223786;28;20041;-68
2020/12/17 04:35:51;;;;;;;39.15;29.85;;;;;;;;;;6238215;28;20121;-68
2020/12/17 04:38:52;;;;;;;41.47;31.10;;;;;;;;;;6230379;28;20064;-68
2020/12/17 04:41:54;;;;;;;40.85;31.13;;;;;;;;;;6233009;28;20080;-68
2020/12/17 04:44:56;;;;;;;45.15;31.25;;;;;;;;;;6235047;28;20080;-68
2020/12/17 04:47:57;;;;;;;39.97;30.17;;;;;;;;;;6232719;28;20136;-69
2020/12/17 04:50:59;;;;;;;43.28;31.95;;;;;;;;;;6229624;28;20049;-68
2020/12/17 04:54:01;;;;;;;45.20;31.75;;;;;;;;;;6231624;28;20051;-68
2020/12/17 04:57:08;;;;;;;43.47;30.67;;;;;;;;;;6233079;28;20390;-69
2020/12/17 05:00:09;;;;;;;42.78;30.35;;;;;;;;;;6232704;28;20053;-69
2020/12/17 05:03:12;;;;;;;39.75;29.70;;;;;;;;;;6231112;28;20051;-68
2020/12/17 05:06:18;;;;;;;35.17;26.75;;;;;;;;;;6227525;28;20037;-68
2020/12/17 05:09:19;;;;;;;31.38;23.90;;;;;;;;;;6228422;28;20057;-68
2020/12/17 05:12:21;;;;;;;33.63;24.75;;;;;;;;;;6239266;28;20460;-68
2020/12/17 05:15:22;;;;;;;37.17;25.17;;;;;;;;;;6230026;28;20080;-70
2020/12/17 05:18:24;;;;;;;35.75;24.63;;;;;;;;;;6227580;28;20128;-68
2020/12/17 05:21:25;;;;;;;33.80;24.52;;;;;;;;;;6238432;28;20471;-68
2020/12/17 05:24:27;;;;;;;33.03;24.50;;;;;;;;;;6221816;28;20481;-68
2020/12/17 05:27:29;;;;;;;35.95;25.58;;;;;;;;;;6210694;28;20141;-69
2020/12/17 05:30:33;;;;;;;33.35;25.08;;;;;;;;;;6226927;28;20056;-68
2020/12/17 05:33:34;;;;;;;;;;;;;;;;;;6225042;28;20195;-67
2020/12/17 05:36:35;;;;;;;34.88;24.10;;;;;;;;;;6217526;28;20426;-68
2020/12/17 05:39:42;;;;;;;31.45;24.30;;;;;;;;;;6209985;28;20168;-68
2020/12/17 05:42:44;;;;;;;30.45;22.40;;;;;;;;;;6207189;28;20183;-68
2020/12/17 05:45:45;;;;;;;28.88;22.63;;;;;;;;;;6206863;28;20137;-68
2020/12/17 05:48:46;;;;;;;30.42;20.67;;;;;;;;;;6222057;28;20045;-68
2020/12/17 05:51:49;;;;;;;28.38;21.02;;;;;;;;;;6233036;28;20549;-68
2020/12/17 05:55:01;;;;;;;27.85;19.95;;;;;;;;;;6235171;28;20098;-68
2020/12/17 05:58:03;;;;;;;30.02;20.35;;;;;;;;;;6230678;28;20704;-68
2020/12/17 06:01:12;;;;;;;28.55;21.35;;;;;;;;;;6229005;28;20790;-68
2020/12/17 06:04:16;;;;;;;28.40;19.80;;;;;;;;;;6231972;28;20507;-68
2020/12/17 06:07:19;;;;;;;26.77;20.08;;;;;;;;;;6229999;28;20041;-68
2020/12/17 06:10:22;;;;;;;24.65;20.42;;;;;;;;;;6228618;28;21261;-70
2020/12/17 06:13:24;;;;;;;28.67;21.17;;;;;;;;;;6227652;28;21898;-68
2020/12/17 06:16:26;;;;;;;28.90;20.48;;;;;;;;;;6226832;28;20136;-68
2020/12/17 06:19:28;;;;;;;29.25;21.33;;;;;;;;;;6228203;28;20129;-68
2020/12/17 06:22:29;;;;;;;26.55;20.27;;;;;;;;;;6205762;28;20533;-71
2020/12/17 06:25:32;;;;;;;29.65;20.80;;;;;;;;;;6207130;28;20103;-72
2020/12/17 06:28:44;;;;;;;27.90;20.52;;;;;;;;;;6203384;28;20453;-67
2020/12/17 06:31:56;;;;;;;30.25;22.35;;;;;;;;;;6207935;28;20053;-68
2020/12/17 06:34:58;;;;;;;30.40;22.23;;;;;;;;;;6207043;28;20092;-69
2020/12/17 06:38:06;;;;;;;34.78;22.45;;;;;;;;;;6208252;28;20078;-69
2020/12/17 06:41:18;;;;;;;32.25;23.15;;;;;;;;;;6214554;28;20073;-69
2020/12/17 06:44:27;;;;;;;32.88;24.02;;;;;;;;;;6224202;28;20107;-69
2020/12/17 06:47:29;;;;;;;29.10;21.55;;;;;;;;;;6237499;28;20130;-69
2020/12/17 06:50:30;;;;;;;31.30;21.50;;;;;;;;;;6224977;28;20176;-69
2020/12/17 06:53:39;;;;;;;27.98;20.25;;;;;;;;;;6235409;28;20129;-71
2020/12/17 06:57:03;;;;;;;27.63;20.17;;;;;;;;;;6236456;28;20552;-69
2020/12/17 07:00:07;;;;;;;26.75;18.60;;;;;;;;;;6228041;28;20133;-69
2020/12/17 07:03:08;;;;;;;32.30;19.80;;;;;;;;;;6233723;28;20073;-70
2020/12/17 07:06:13;;;;;;;29.48;21.70;;;;;;;;;;6231995;28;20075;-69
2020/12/17 07:09:14;;;;;;;35.25;22.48;;;;;;;;;;6232400;28;20053;-71
2020/12/17 07:12:45;;;;;;;32.58;24.55;;;;;;;;;;6236457;28;20503;-68
2020/12/17 07:15:47;;;;;;;31.42;24.30;;;;;;;;;;6235170;28;20140;-69
2020/12/17 07:18:48;;;;;;;32.85;23.88;;;;;;;;;;6229274;28;20667;-69
2020/12/17 07:21:51;;;;;;;28.75;21.50;;;;;;;;;;6239264;28;20463;-68
2020/12/17 07:28:13;;;;;;;32.95;21.73;;;;;;;;;;7017599;22;20054;-71
2020/12/17 07:31:24;;;;;;;27.13;18.33;;;;;;;;;;6205882;28;20128;-71
2020/12/17 07:34:30;;;;;;;27.13;19.20;;;;;;;;;;6209465;28;20038;-68
2020/12/17 07:37:41;;;;;;;25.90;18.00;;;;;;;;;;6213706;28;20489;-69
2020/12/17 07:40:43;;;;;;;27.00;17.98;;;;;;;;;;6212454;28;20647;-69
2020/12/17 07:43:44;;;;;;;25.25;17.73;;;;;;;;;;6208488;28;20677;-70
2020/12/17 07:46:46;;;;;;;26.27;18.02;;;;;;;;;;6201815;28;20042;-69
2020/12/17 07:49:47;;;;;;;24.20;18.63;;;;;;;;;;6190815;28;20112;-69
2020/12/17 07:52:48;;;;;;;27.98;19.10;;;;;;;;;;6206448;28;20060;-71
2020/12/17 07:55:50;;;;;;;29.58;19.08;;;;;;;;;;6205293;28;20042;-70
2020/12/17 07:58:53;;;;;;;28.27;20.50;;;;;;;;;;6191995;28;20093;-69
2020/12/17 08:01:58;;;;;;;35.78;24.90;;;;;;;;;;6181717;28;20058;-69
2020/12/17 08:04:59;;;;;;;37.50;29.17;;;;;;;;;;6180043;28;20421;-71
2020/12/17 08:08:00;;;;;;;43.95;27.70;;;;;;;;;;6181327;28;20084;-71
2020/12/17 08:11:02;;;;;;;40.75;28.90;;;;;;;;;;6187870;28;20054;-69
2020/12/17 08:14:05;;;;;;;42.95;29.85;;;;;;;;;;6180649;28;20093;-69
2020/12/17 08:17:08;;;;;;;42.10;31.02;;;;;;;;;;6188962;28;20058;-70
2020/12/17 08:20:14;;;;;;;47.45;30.05;;;;;;;;;;6210645;28;20058;-72
2020/12/17 08:23:20;;;;;;;38.95;29.85;;;;;;;;;;6227638;28;20136;-72
2020/12/17 08:26:23;;;;;;;44.83;31.50;;;;;;;;;;6236556;28;20045;-72
2020/12/17 08:29:24;;;;;;;42.60;29.80;;;;;;;;;;6237600;28;20054;-72
2020/12/17 08:32:26;;;;;;;47.92;31.42;;;;;;;;;;6246853;28;20045;-70
2020/12/17 08:35:27;;;;;;;40.88;31.60;;;;;;;;;;6233701;28;20671;-69
2020/12/17 08:38:28;;;;;;;42.75;31.52;;;;;;;;;;6237591;28;20045;-69
2020/12/17 08:41:30;;;;;;;44.75;33.10;;;;;;;;;;6236866;28;20077;-71
2020/12/17 08:44:35;;;;;;;43.35;31.85;;;;;;;;;;6236336;28;20060;-69
2020/12/17 08:47:40;;;;;;;45.08;31.95;;;;;;;;;;6237436;28;20065;-70
2020/12/17 08:50:41;;;;;;;43.97;32.28;;;;;;;;;;6241652;28;20576;-71
2020/12/17 08:53:44;;;;;;;46.58;33.67;;;;;;;;;;6240044;28;20136;-70
2020/12/17 08:56:45;;;;;;;43.50;33.40;;;;;;;;;;6241365;28;20075;-70
2020/12/17 08:59:52;;;;;;;44.95;33.58;;;;;;;;;;6241022;28;20464;-70
2020/12/17 09:02:58;;;;;;;46.60;34.72;;;;;;;;;;6239684;28;20258;-71
2020/12/17 09:06:03;;;;;;;47.70;33.78;;;;;;;;;;6233996;28;20488;-70
2020/12/17 09:09:13;;;;;;;47.83;35.78;;;;;;;;;;6229921;28;20180;-71
2020/12/17 09:12:14;;;;;;;46.47;35.28;;;;;;;;;;6235096;28;20103;-70
2020/12/17 09:15:15;;;;;;;50.33;36.63;;;;;;;;;;6235436;28;20059;-70
2020/12/17 09:18:17;;;;;;;49.10;35.60;;;;;;;;;;6235272;28;20137;-70
2020/12/17 09:21:18;;;;;;;44.00;33.05;;;;;;;;;;6237684;28;20366;-70
2020/12/17 09:24:25;;;;;;;49.63;33.30;;;;;;;;;;6239207;28;20073;-70
2020/12/17 09:27:28;;;;;;;45.90;33.47;;;;;;;;;;6234674;28;20041;-71
2020/12/17 09:30:31;;;;;;;47.13;32.20;;;;;;;;;;6231057;28;20076;-70
2020/12/17 09:33:33;;;;;;;43.40;33.15;;;;;;;;;;6233602;28;20045;-70
2020/12/17 09:36:36;;;;;;;41.05;30.50;;;;;;;;;;6226208;28;20055;-70
2020/12/17 09:39:42;;;;;;;37.92;28.70;;;;;;;;;;6233425;28;20416;-70
2020/12/17 09:42:43;;;;;;;43.85;29.45;;;;;;;;;;6229998;28;20053;-70
2020/12/17 09:45:45;;;;;;;39.35;29.40;;;;;;;;;;6242834;28;20942;-72
2020/12/17 09:48:47;;;;;;;44.97;30.45;;;;;;;;;;6230773;28;20049;-69
2020/12/17 09:52:00;;;;;;;38.60;29.60;;;;;;;;;;6233344;28;20095;-71
2020/12/17 09:55:01;;;;;;;34.28;28.48;;;;;;;;;;6228926;28;20049;-71
2020/12/17 09:58:03;;;;;;;39.70;28.40;;;;;;;;;;6228599;28;20050;-70
2020/12/17 10:01:04;;;;;;;35.28;27.02;;;;;;;;;;6226125;28;20049;-70
2020/12/17 10:04:06;;;;;;;38.33;27.80;;;;;;;;;;6229907;28;20064;-70
2020/12/17 10:07:08;;;;;;;35.80;27.83;;;;;;;;;;6229520;28;20896;-70
2020/12/17 10:10:09;;;;;;;36.70;27.27;;;;;;;;;;6224321;28;20033;-68
2020/12/17 10:13:10;;;;;;;34.55;28.23;;;;;;;;;;6231963;28;20401;-68
2020/12/17 10:16:15;;;;;;;35.72;27.88;;;;;;;;;;6225236;28;20054;-69
2020/12/17 10:19:18;;;;;;;42.50;29.23;;;;;;;;;;6230082;28;20053;-72
2020/12/17 10:22:19;;;;;;;40.08;28.50;;;;;;;;;;6231350;28;20053;-70
2020/12/17 10:25:21;;;;;;;35.72;29.17;;;;;;;;;;6225989;28;20209;-70
2020/12/17 10:28:22;;;;;;;37.42;28.92;;;;;;;;;;6228861;28;20060;-73
2020/12/17 10:31:23;;;;;;;35.92;28.08;;;;;;;;;;6226338;28;22212;-72
2020/12/17 10:34:25;;;;;;;41.83;29.25;;;;;;;;;;6226771;28;20041;-70
2020/12/17 10:37:26;;;;;;;41.72;29.95;;;;;;;;;;5880930;28;9999894;-71
2020/12/17 10:40:27;;;;;;;38.42;29.13;;;;;;;;;;6232005;28;20627;-72
2020/12/17 10:43:29;;;;;;;41.97;31.88;;;;;;;;;;6229779;28;20099;-70
2020/12/17 10:46:31;;;;;;;42.67;30.30;;;;;;;;;;5882380;28;9999708;-70
2020/12/17 10:49:33;;;;;;;36.80;29.83;;;;;;;;;;6229510;28;20049;-70
2020/12/17 10:52:34;;;;;;;42.25;30.83;;;;;;;;;;6230603;28;20084;-71
2020/12/17 10:55:35;;;;;;;45.40;30.92;;;;;;;;;;6233353;28;20506;-70
2020/12/17 10:58:37;;;;;;;38.45;30.45;;;;;;;;;;6231044;28;20850;-69
2020/12/17 11:01:38;;;;;;;41.83;30.30;;;;;;;;;;6230504;28;20042;-69
2020/12/17 11:04:40;;;;;;;39.80;30.40;;;;;;;;;;6230054;28;20045;-72
2020/12/17 11:07:41;;;;;;;38.10;29.60;;;;;;;;;;6228808;28;20472;-70
2020/12/17 11:10:42;;;;;;;37.17;30.17;;;;;;;;;;6229703;28;20042;-71
2020/12/17 11:13:43;;;;;;;38.40;30.23;;;;;;;;;;6231871;28;20046;-69
2020/12/17 11:16:44;;;;;;;39.80;30.25;;;;;;;;;;6232916;28;20144;-69
2020/12/17 11:19:46;;;;;;;40.22;30.20;;;;;;;;;;6235400;28;20136;-70
2020/12/17 11:22:47;;;;;;;37.90;30.20;;;;;;;;;;6233542;28;20136;-70
2020/12/17 11:25:48;;;;;;;38.63;30.83;;;;;;;;;;6234464;28;20057;-70
2020/12/17 11:28:49;;;;;;;36.22;29.92;;;;;;;;;;6231970;28;20068;-71
2020/12/17 11:31:50;;;;;;;38.80;28.35;;;;;;;;;;6228635;28;20045;-70
2020/12/17 11:34:52;;;;;;;36.28;28.25;;;;;;;;;;6231725;28;20054;-70
2020/12/17 11:37:53;;;;;;;37.67;29.92;;;;;;;;;;6231219;28;20119;-70
2020/12/17 11:40:55;;;;;;;37.63;29.08;;;;;;;;;;6231783;28;20073;-70
2020/12/17 11:43:56;;;;;;;38.72;29.00;;;;;;;;;;6226995;28;20062;-70
2020/12/17 11:46:57;;;;;;;36.97;28.60;;;;;;;;;;6228640;28;20053;-70
2020/12/17 11:49:58;;;;;;;40.55;28.58;;;;;;;;;;6229441;28;20045;-71
2020/12/17 11:52:59;;;;;;;39.50;29.83;;;;;;;;;;6230334;28;20481;-69
2020/12/17 11:56:00;;;;;;;40.20;30.88;;;;;;;;;;6228950;28;20734;-69
2020/12/17 11:59:02;;;;;;;39.90;30.10;;;;;;;;;;6231978;28;20461;-71
2020/12/17 12:02:06;;;;;;;39.80;31.08;;;;;;;;;;6223763;28;20104;-69
2020/12/17 12:05:08;;;;;;;40.70;29.90;;;;;;;;;;6239668;28;20073;-68
2020/12/17 12:08:09;;;;;;;34.58;28.60;;;;;;;;;;6231526;28;20515;-69
2020/12/17 12:11:10;;;;;;;37.55;29.65;;;;;;;;;;6233043;28;20103;-69
2020/12/17 12:14:11;;;;;;;36.70;29.52;;;;;;;;;;6231840;28;20742;-69
2020/12/17 12:17:12;;;;;;;37.33;30.63;;;;;;;;;;6230172;28;20093;-70
2020/12/17 12:20:14;;;;;;;37.78;30.60;;;;;;;;;;6235490;28;20106;-70
2020/12/17 12:23:16;;;;;;;34.72;29.75;;;;;;;;;;6237765;28;20708;-70
2020/12/17 12:26:17;;;;;;;36.55;29.05;;;;;;;;;;6232706;28;20045;-71
2020/12/17 12:29:18;;;;;;;37.20;28.73;;;;;;;;;;6236178;28;20116;-71
2020/12/17 12:32:19;;;;;;;37.50;29.85;;;;;;;;;;6240885;28;20072;-71
2020/12/17 12:35:22;;;;;;;38.15;30.23;;;;;;;;;;6234273;28;20485;-71
2020/12/17 12:38:23;;;;;;;36.73;29.40;;;;;;;;;;5884123;28;9999960;-71
2020/12/17 12:41:24;;;;;;;40.58;31.58;;;;;;;;;;6230876;28;20046;-70
2020/12/17 12:44:25;;;;;;;40.13;30.58;;;;;;;;;;6231817;28;20454;-71
2020/12/17 12:47:27;;;;;;;35.50;30.02;;;;;;;;;;6239537;28;20925;-70
2020/12/17 12:50:29;;;;;;;37.83;30.73;;;;;;;;;;6231120;28;20587;-70
2020/12/17 12:53:32;;;;;;;37.55;30.98;;;;;;;;;;6230447;28;20692;-72
2020/12/17 12:56:34;;;;;;;40.83;31.10;;;;;;;;;;5538067;28;10000048;-72
2020/12/17 12:59:35;;;;;;;38.53;31.17;;;;;;;;;;6232097;28;20045;-72
2020/12/17 13:02:36;;;;;;;40.88;31.48;;;;;;;;;;6235263;28;20076;-70
2020/12/17 13:05:38;;;;;;;41.03;32.00;;;;;;;;;;6237115;28;20153;-70
2020/12/17 13:08:39;;;;;;;41.20;31.33;;;;;;;;;;6232811;28;20686;-69
2020/12/17 13:11:40;;;;;;;36.70;29.90;;;;;;;;;;6235755;28;20594;-70
2020/12/17 13:14:41;;;;;;;41.28;31.35;;;;;;;;;;6225163;28;20041;-69
2020/12/17 13:17:42;;;;;;;41.40;30.70;;;;;;;;;;6230848;28;20052;-69
2020/12/17 13:20:44;;;;;;;36.67;30.27;;;;;;;;;;6234954;28;20041;-70
2020/12/17 13:23:45;;;;;;;39.67;30.17;;;;;;;;;;6236704;28;20077;-69
2020/12/17 13:26:46;;;;;;;39.13;31.05;;;;;;;;;;6230972;28;20060;-70
2020/12/17 13:29:47;;;;;;;42.47;30.08;;;;;;;;;;6233786;28;20148;-70
2020/12/17 13:32:48;;;;;;;40.08;30.02;;;;;;;;;;6239205;28;20111;-69
2020/12/17 13:35:50;;;;;;;37.30;30.33;;;;;;;;;;6236786;28;20078;-70
2020/12/17 13:38:51;;;;;;;37.50;29.52;;;;;;;;;;6237110;28;20121;-70
2020/12/17 13:41:53;;;;;;;37.72;29.25;;;;;;;;;;6238938;28;20058;-70
2020/12/17 13:44:54;;;;;;;38.38;29.75;;;;;;;;;;6231938;28;20167;-70
2020/12/17 13:47:55;;;;;;;36.55;29.23;;;;;;;;;;6233279;28;20061;-70
2020/12/17 13:50:57;;;;;;;36.28;29.40;;;;;;;;;;6235996;28;20165;-69
2020/12/17 13:53:58;;;;;;;37.97;29.70;;;;;;;;;;6231305;28;20064;-71
2020/12/17 13:57:01;;;;;;;41.75;30.95;;;;;;;;;;6234703;28;20136;-70
2020/12/17 14:00:03;;;;;;;39.60;29.88;;;;;;;;;;6227649;28;20780;-70
2020/12/17 14:03:04;;;;;;;37.45;29.40;;;;;;;;;;6227290;28;20079;-71
2020/12/17 14:06:06;;;;;;;38.70;30.20;;;;;;;;;;6204690;28;20051;-72
2020/12/17 14:09:07;;;;;;;38.75;29.95;;;;;;;;;;6229782;28;20053;-71
2020/12/17 14:12:08;;;;;;;38.92;29.90;;;;;;;;;;6228176;28;20616;-70
2020/12/17 14:15:09;;;;;;;43.35;31.20;;;;;;;;;;6233621;28;20048;-70
2020/12/17 14:18:10;;;;;;;42.80;31.77;;;;;;;;;;6231616;28;20106;-69
2020/12/17 14:21:12;;;;;;;34.08;30.20;;;;;;;;;;6235913;28;20738;-69
2020/12/17 14:24:14;;;;;;;36.17;29.48;;;;;;;;;;6227162;28;20493;-71
2020/12/17 14:27:15;;;;;;;40.28;30.95;;;;;;;;;;6229799;28;20038;-69
2020/12/17 14:30:16;;;;;;;40.40;31.45;;;;;;;;;;6229964;28;20610;-70
2020/12/17 14:33:17;;;;;;;39.38;30.00;;;;;;;;;;6228080;28;20531;-71
2020/12/17 14:36:19;;;;;;;38.88;31.52;;;;;;;;;;6230412;28;20128;-70
2020/12/17 14:39:20;;;;;;;41.13;32.38;;;;;;;;;;6230531;28;20053;-69
2020/12/17 14:42:21;;;;;;;44.08;30.92;;;;;;;;;;6232767;28;20175;-71
2020/12/17 14:45:22;;;;;;;40.15;32.03;;;;;;;;;;6237213;28;20068;-70
2020/12/17 14:48:23;;;;;;;38.20;30.55;;;;;;;;;;6236968;28;20053;-71
2020/12/17 14:51:25;;;;;;;39.15;30.05;;;;;;;;;;6241069;28;20132;-70
2020/12/17 14:54:26;;;;;;;42.72;30.30;;;;;;;;;;6232934;28;20073;-71
2020/12/17 14:57:27;;;;;;;38.03;29.98;;;;;;;;;;6230302;28;20164;-71
2020/12/17 15:00:28;;;;;;;37.38;30.65;;;;;;;;;;6233837;28;20137;-69
2020/12/17 15:03:29;;;;;;;43.50;31.58;;;;;;;;;;6232051;28;20981;-72
2020/12/17 15:06:31;;;;;;;42.22;30.42;;;;;;;;;;6228765;28;20100;-69
2020/12/17 15:09:32;;;;;;;39.17;30.55;;;;;;;;;;6225740;28;20171;-70
2020/12/17 15:12:33;;;;;;;43.47;31.95;;;;;;;;;;6229853;28;20149;-71
2020/12/17 15:15:34;;;;;;;39.80;31.85;;;;;;;;;;6226777;28;20560;-71
2020/12/17 15:18:35;;;;;;;42.63;31.25;;;;;;;;;;6225919;28;20068;-71
2020/12/17 15:21:37;;;;;;;39.85;30.27;;;;;;;;;;6225964;28;20053;-71
2020/12/17 15:24:38;;;;;;;40.38;32.03;;;;;;;;;;6226948;28;20099;-70
2020/12/17 15:27:40;;;;;;;42.80;31.85;;;;;;;;;;6227739;28;20198;-70
2020/12/17 15:30:41;;;;;;;42.40;32.03;;;;;;;;;;6226685;28;20054;-70
2020/12/17 15:33:42;;;;;;;47.85;33.00;;;;;;;;;;6228184;28;20045;-71
2020/12/17 15:36:44;;;;;;;40.58;32.30;;;;;;;;;;6231571;28;20128;-72
2020/12/17 15:39:45;;;;;;;38.97;30.73;;;;;;;;;;6232389;28;20137;-69
2020/12/17 15:42:46;;;;;;;42.58;31.88;;;;;;;;;;6204517;28;20485;-70
2020/12/17 15:45:47;;;;;;;40.63;30.58;;;;;;;;;;6230043;28;20048;-72
2020/12/17 15:48:48;;;;;;;44.08;31.38;;;;;;;;;;6215363;28;20167;-69
2020/12/17 15:51:53;;;;;;;40.30;31.73;;;;;;;;;;6233311;28;20076;-70
2020/12/17 15:54:54;;;;;;;41.08;31.15;;;;;;;;;;6206973;28;20080;-69
2020/12/17 15:57:55;;;;;;;41.67;32.50;;;;;;;;;;6234801;28;20078;-71
2020/12/17 16:00:56;;;;;;;41.55;32.35;;;;;;;;;;6234544;28;20986;-70
2020/12/17 16:03:57;;;;;;;41.17;31.50;;;;;;;;;;6235309;28;20148;-69
2020/12/17 16:06:59;;;;;;;41.88;32.33;;;;;;;;;;6236648;28;20587;-69
2020/12/17 16:10:01;;;;;;;43.30;32.42;;;;;;;;;;6236012;28;20058;-69
2020/12/17 16:13:02;;;;;;;45.58;34.47;;;;;;;;;;6235151;28;20056;-71
2020/12/17 16:16:04;;;;;;;41.08;32.30;;;;;;;;;;6233429;28;20041;-71
2020/12/17 16:19:05;;;;;;;47.40;33.22;;;;;;;;;;6230700;28;20509;-69
2020/12/17 16:22:07;;;;;;;44.15;32.40;;;;;;;;;;6231615;28;20132;-70
2020/12/17 16:25:08;;;;;;;41.58;32.83;;;;;;;;;;6231037;28;20128;-70
2020/12/17 16:28:09;;;;;;;45.17;32.42;;;;;;;;;;6236112;28;20088;-70
2020/12/17 16:31:10;;;;;;;40.85;31.92;;;;;;;;;;6231245;28;20628;-70
2020/12/17 16:34:11;;;;;;;47.28;34.72;;;;;;;;;;6234880;28;20429;-71
2020/12/17 16:37:13;;;;;;;43.67;32.92;;;;;;;;;;6229387;28;20567;-71
2020/12/17 16:40:14;;;;;;;47.20;34.67;;;;;;;;;;6235973;28;20077;-70
2020/12/17 16:43:15;;;;;;;48.13;33.42;;;;;;;;;;6234747;28;20053;-72
2020/12/17 16:46:17;;;;;;;45.85;32.22;;;;;;;;;;6237048;28;20477;-68
2020/12/17 16:49:18;;;;;;;46.42;33.55;;;;;;;;;;6237672;28;20047;-68
2020/12/17 16:52:20;;;;;;;43.75;34.33;;;;;;;;;;6237302;28;20457;-68
2020/12/17 16:55:21;;;;;;;50.80;33.80;;;;;;;;;;6230001;28;20558;-69
2020/12/17 16:58:22;;;;;;;46.00;35.40;;;;;;;;;;6233682;28;20647;-70
2020/12/17 17:01:23;;;;;;;49.40;36.17;;;;;;;;;;6231787;28;20046;-70
2020/12/17 17:04:24;;;;;;;47.05;35.50;;;;;;;;;;6226789;28;20389;-71
2020/12/17 17:07:26;;;;;;;50.65;35.25;;;;;;;;;;6231772;28;20489;-71
2020/12/17 17:10:27;;;;;;;47.08;36.45;;;;;;;;;;6225383;28;20046;-71
2020/12/17 17:13:29;;;;;;;49.00;36.55;;;;;;;;;;6230245;28;20172;-71
2020/12/17 17:16:30;;;;;;;49.70;36.92;;;;;;;;;;6219063;28;20628;-72
2020/12/17 17:19:31;;;;;;;50.03;36.03;;;;;;;;;;6225840;28;20128;-70
2020/12/17 17:22:33;;;;;;;51.10;36.47;;;;;;;;;;6222440;28;20057;-71
2020/12/17 17:25:34;;;;;;;50.15;36.97;;;;;;;;;;6206796;28;20084;-70
2020/12/17 17:28:35;;;;;;;48.33;35.75;;;;;;;;;;6231390;28;20721;-70
2020/12/17 17:31:36;;;;;;;54.25;37.42;;;;;;;;;;6230855;28;20045;-70
2020/12/17 17:34:37;;;;;;;51.83;38.55;;;;;;;;;;6227179;28;20084;-71
2020/12/17 17:37:42;;;;;;;57.50;42.03;;;;;;;;;;6230994;28;20045;-71
2020/12/17 17:40:47;;;;;;;;;;;;;;;;;;6231031;28;20090;-68
2020/12/17 17:43:48;;;;;;;61.58;42.63;;;;;;;;;;6233951;28;19952;-71